createdAt,value
2023-02-17T00:01:10.850Z,33.63
2023-02-17T00:03:37.264Z,33.92
2023-02-17T00:06:10.841Z,41.75
2023-02-17T00:08:37.528Z,43.15
2023-02-17T00:11:04.198Z,36.72
2023-02-17T00:13:30.581Z,41.65
2023-02-17T00:15:57.033Z,45.13
2023-02-17T00:18:29.706Z,41.10
2023-02-17T00:20:56.091Z,44.40
2023-02-17T00:23:22.587Z,41.95
2023-02-17T00:25:48.988Z,47.35
2023-02-17T00:28:15.456Z,45.55
2023-02-17T00:30:41.877Z,50.35
2023-02-17T00:33:08.281Z,45.97
2023-02-17T00:35:38.714Z,46.13
2023-02-17T00:38:05.100Z,44.67
2023-02-17T00:40:31.479Z,48.00
2023-02-17T00:42:57.930Z,50.53
2023-02-17T00:45:27.324Z,51.75
2023-02-17T00:47:53.756Z,47.17
2023-02-17T00:50:20.222Z,52.55
2023-02-17T00:52:46.591Z,45.15
2023-02-17T00:55:12.993Z,46.60
2023-02-17T00:57:39.396Z,52.75
2023-02-17T01:00:06.403Z,49.88
2023-02-17T01:02:33.108Z,45.90
2023-02-17T01:04:59.538Z,42.53
2023-02-17T01:07:25.961Z,44.25
2023-02-17T01:09:52.347Z,49.75
2023-02-17T01:12:18.745Z,39.95
2023-02-17T01:14:45.147Z,42.58
2023-02-17T01:17:11.639Z,41.33
2023-02-17T01:19:38.073Z,46.30
2023-02-17T01:22:04.603Z,45.97
2023-02-17T01:24:31.144Z,47.78
2023-02-17T01:27:00.378Z,45.17
2023-02-17T01:29:26.794Z,43.13
2023-02-17T01:31:53.287Z,46.83
2023-02-17T01:34:19.725Z,46.80
2023-02-17T01:36:46.133Z,45.95
2023-02-17T01:39:15.864Z,46.00
2023-02-17T01:41:42.389Z,43.53
2023-02-17T01:44:23.106Z,50.85
2023-02-17T01:46:51.022Z,47.08
2023-02-17T01:49:19.878Z,40.60
2023-02-17T01:51:48.669Z,44.95
2023-02-17T01:54:20.130Z,45.70
2023-02-17T01:56:48.398Z,40.33
2023-02-17T01:59:17.428Z,44.05
2023-02-17T02:01:43.955Z,46.95
2023-02-17T02:04:13.541Z,42.75
2023-02-17T02:06:40.874Z,39.25
2023-02-17T02:09:09.027Z,43.22
2023-02-17T02:11:35.796Z,46.25
2023-02-17T02:14:04.409Z,38.22
2023-02-17T02:16:36.595Z,43.33
2023-02-17T02:19:21.258Z,43.17
2023-02-17T02:22:06.407Z,41.63
2023-02-17T02:24:51.486Z,41.80
2023-02-17T02:27:27.272Z,46.13
2023-02-17T02:29:53.863Z,47.58
2023-02-17T02:32:20.264Z,47.78
2023-02-17T02:34:48.764Z,48.42
2023-02-17T02:37:18.012Z,45.78
2023-02-17T02:39:47.088Z,47.28
2023-02-17T02:42:15.907Z,54.88
2023-02-17T02:44:42.393Z,48.58
2023-02-17T02:47:27.517Z,56.00
2023-02-17T02:49:53.984Z,51.58
2023-02-17T02:52:28.731Z,46.53
2023-02-17T02:55:05.889Z,56.80
2023-02-17T02:57:50.358Z,52.22
2023-02-17T03:00:22.756Z,50.95
2023-02-17T03:02:52.457Z,57.95
2023-02-17T03:05:39.190Z,55.30
2023-02-17T03:08:10.178Z,50.20
2023-02-17T03:10:36.785Z,51.85
2023-02-17T03:13:03.494Z,60.40
2023-02-17T03:15:33.769Z,50.92
2023-02-17T03:18:01.163Z,50.65
2023-02-17T03:20:30.026Z,50.80
2023-02-17T03:22:56.625Z,57.05
2023-02-17T03:25:23.009Z,55.35
2023-02-17T03:27:49.420Z,51.10
2023-02-17T03:30:16.137Z,48.83
2023-02-17T03:32:42.551Z,52.80
2023-02-17T03:35:09.493Z,57.92
2023-02-17T03:37:35.994Z,50.88
2023-02-17T03:40:02.428Z,46.15
2023-02-17T03:42:28.835Z,49.63
2023-02-17T03:44:55.229Z,43.67
2023-02-17T03:47:23.508Z,53.38
2023-02-17T03:49:50.721Z,44.90
2023-02-17T03:52:17.152Z,46.92
2023-02-17T03:54:43.612Z,44.85
2023-02-17T03:57:10.053Z,43.40
2023-02-17T03:59:36.621Z,42.78
2023-02-17T04:02:03.666Z,39.20
2023-02-17T04:04:30.042Z,41.13
2023-02-17T04:06:56.486Z,31.88
2023-02-17T04:09:22.862Z,37.90
2023-02-17T04:11:49.327Z,34.60
2023-02-17T04:14:15.697Z,33.42
2023-02-17T04:16:42.123Z,31.50
2023-02-17T04:19:08.544Z,32.33
2023-02-17T04:21:35.215Z,28.73
2023-02-17T04:24:02.282Z,27.67
2023-02-17T04:26:30.194Z,30.35
2023-02-17T04:28:59.719Z,29.23
2023-02-17T04:31:28.054Z,31.08
2023-02-17T04:33:54.993Z,36.47
2023-02-17T04:36:21.441Z,31.70
2023-02-17T04:38:48.062Z,30.83
2023-02-17T04:41:14.476Z,27.98
2023-02-17T04:43:40.884Z,28.52
2023-02-17T04:46:10.072Z,28.50
2023-02-17T04:48:36.633Z,27.42
2023-02-17T04:51:03.182Z,26.02
2023-02-17T04:53:29.556Z,25.23
2023-02-17T04:55:58.895Z,28.80
2023-02-17T04:58:25.332Z,23.00
2023-02-17T05:00:51.794Z,23.90
2023-02-17T05:03:18.725Z,27.55
2023-02-17T05:05:46.970Z,21.63
2023-02-17T05:08:13.524Z,21.83
2023-02-17T05:10:39.945Z,18.05
2023-02-17T05:13:06.428Z,17.50
2023-02-17T05:15:34.896Z,12.57
2023-02-17T05:18:01.604Z,16.23
2023-02-17T05:20:28.049Z,12.20
2023-02-17T05:22:54.659Z,14.20
2023-02-17T05:25:21.216Z,10.55
2023-02-17T05:27:47.617Z,10.10
2023-02-17T05:30:14.083Z,13.13
2023-02-17T05:32:40.594Z,8.25
2023-02-17T05:35:07.218Z,10.05
2023-02-17T05:37:33.679Z,7.22
2023-02-17T05:40:00.120Z,7.00
2023-02-17T05:42:28.863Z,7.63
2023-02-17T05:44:58.142Z,5.60
2023-02-17T05:47:26.673Z,5.60
2023-02-17T05:49:53.967Z,8.00
2023-02-17T05:52:20.466Z,7.43
2023-02-17T05:54:46.943Z,6.53
2023-02-17T05:57:13.451Z,7.80
2023-02-17T05:59:39.875Z,5.10
2023-02-17T06:02:09.312Z,6.80
2023-02-17T06:04:36.113Z,4.15
2023-02-17T06:07:02.574Z,4.78
2023-02-17T06:09:29.051Z,5.13
2023-02-17T06:11:55.438Z,6.15
2023-02-17T06:14:21.905Z,5.30
2023-02-17T06:16:48.299Z,4.03
2023-02-17T06:19:14.732Z,8.15
2023-02-17T06:21:41.117Z,6.00
2023-02-17T06:24:07.507Z,5.85
2023-02-17T06:26:33.890Z,6.45
2023-02-17T06:29:00.277Z,5.43
2023-02-17T06:31:26.770Z,7.80
2023-02-17T06:33:53.248Z,6.43
2023-02-17T06:36:19.774Z,6.78
2023-02-17T06:38:46.424Z,6.82
2023-02-17T06:41:12.839Z,5.30
2023-02-17T06:43:41.032Z,6.03
2023-02-17T06:46:07.841Z,4.43
2023-02-17T06:48:34.779Z,5.60
2023-02-17T06:51:01.678Z,4.93
2023-02-17T06:53:28.148Z,4.90
2023-02-17T06:55:54.571Z,6.68
2023-02-17T06:58:20.987Z,6.00
2023-02-17T07:00:47.463Z,5.72
2023-02-17T07:03:13.871Z,6.38
2023-02-17T07:05:40.430Z,4.05
2023-02-17T07:08:07.214Z,4.22
2023-02-17T07:10:33.767Z,3.63
2023-02-17T07:13:00.221Z,3.92
2023-02-17T07:15:26.626Z,4.72
2023-02-17T07:17:53.041Z,4.30
2023-02-17T07:20:19.514Z,4.25
2023-02-17T07:22:46.007Z,4.50
2023-02-17T07:25:14.518Z,5.00
2023-02-17T07:27:40.898Z,3.78
2023-02-17T07:30:08.339Z,5.18
2023-02-17T07:32:35.559Z,4.35
2023-02-17T07:35:02.024Z,3.38
2023-02-17T07:37:28.433Z,4.03
2023-02-17T07:39:56.993Z,4.13
2023-02-17T07:42:25.434Z,4.72
2023-02-17T07:44:51.808Z,6.05
2023-02-17T07:47:18.226Z,3.88
2023-02-17T07:49:44.687Z,4.30
2023-02-17T07:52:11.219Z,3.97
2023-02-17T07:54:37.820Z,5.55
2023-02-17T07:57:04.219Z,3.45
2023-02-17T07:59:30.689Z,3.10
2023-02-17T08:01:57.168Z,3.03
2023-02-17T08:04:23.616Z,2.63
2023-02-17T08:06:50.108Z,2.33
2023-02-17T08:09:34.929Z,2.47
2023-02-17T08:12:19.708Z,3.30
2023-02-17T08:14:46.135Z,2.00
2023-02-17T08:17:12.618Z,2.30
2023-02-17T08:19:48.472Z,1.85
2023-02-17T08:22:16.699Z,1.55
2023-02-17T08:24:43.352Z,1.40
2023-02-17T08:27:09.807Z,1.10
2023-02-17T08:29:36.231Z,2.80
2023-02-17T08:32:02.771Z,1.73
2023-02-17T08:34:33.585Z,1.90
2023-02-17T08:37:03.644Z,2.40
2023-02-17T08:39:30.484Z,2.73
2023-02-17T08:41:57.167Z,1.45
2023-02-17T08:44:24.059Z,0.88
2023-02-17T08:46:51.099Z,0.75
2023-02-17T08:49:18.465Z,0.65
2023-02-17T08:51:45.402Z,0.77
2023-02-17T08:54:12.500Z,0.65
2023-02-17T08:56:39.774Z,1.02
2023-02-17T08:59:07.431Z,0.82
2023-02-17T09:01:34.559Z,0.70
2023-02-17T09:04:01.752Z,2.50
2023-02-17T09:06:35.653Z,1.55
2023-02-17T09:09:02.480Z,1.60
2023-02-17T09:11:29.012Z,2.95
2023-02-17T09:13:55.491Z,0.93
2023-02-17T09:16:24.384Z,2.92
2023-02-17T09:18:51.997Z,1.30
2023-02-17T09:21:18.890Z,0.50
2023-02-17T09:23:45.769Z,2.15
2023-02-17T09:26:13.135Z,3.60
2023-02-17T09:28:39.711Z,1.30
2023-02-17T09:31:13.158Z,1.50
2023-02-17T09:33:40.327Z,0.90
2023-02-17T09:36:07.871Z,0.90
2023-02-17T09:38:34.839Z,0.73
2023-02-17T09:41:08.175Z,2.15
2023-02-17T09:43:34.721Z,1.05
2023-02-17T09:46:05.804Z,0.90
2023-02-17T09:48:32.993Z,1.45
2023-02-17T09:51:25.149Z,2.25
2023-02-17T09:54:00.528Z,0.70
2023-02-17T09:56:34.832Z,0.70
2023-02-17T09:59:04.488Z,1.02
2023-02-17T10:01:32.259Z,0.40
2023-02-17T10:04:21.749Z,0.85
2023-02-17T10:07:14.497Z,0.80
2023-02-17T10:10:02.766Z,2.50
2023-02-17T10:12:37.329Z,2.25
2023-02-17T10:15:05.856Z,0.50
2023-02-17T10:17:34.575Z,0.68
2023-02-17T10:20:08.156Z,0.63
2023-02-17T10:22:35.263Z,1.33
2023-02-17T10:25:03.797Z,1.27
2023-02-17T10:27:37.939Z,1.27
2023-02-17T10:30:16.800Z,0.65
2023-02-17T10:32:49.254Z,0.95
2023-02-17T10:35:23.133Z,1.17
2023-02-17T10:37:50.653Z,0.50
2023-02-17T10:40:27.392Z,0.93
2023-02-17T10:42:58.170Z,0.70
2023-02-17T10:45:33.597Z,1.30
2023-02-17T10:48:09.145Z,0.30
2023-02-17T10:50:37.432Z,0.43
2023-02-17T10:53:12.008Z,0.77
2023-02-17T10:55:41.088Z,0.40
2023-02-17T10:58:20.812Z,0.75
2023-02-17T11:00:49.747Z,1.60
2023-02-17T11:03:24.379Z,0.68
2023-02-17T11:06:01.830Z,0.30
2023-02-17T11:08:30.271Z,0.80
2023-02-17T11:11:04.991Z,1.05
2023-02-17T11:13:36.283Z,0.65
2023-02-17T11:16:03.175Z,2.95
2023-02-17T11:18:32.737Z,1.10
2023-02-17T11:21:09.533Z,0.50
2023-02-17T11:23:36.789Z,0.98
2023-02-17T11:26:10.798Z,0.93
2023-02-17T11:28:37.346Z,2.22
2023-02-17T11:31:04.895Z,1.02
2023-02-17T11:33:38.835Z,1.33
2023-02-17T11:36:06.605Z,0.80
2023-02-17T11:38:41.421Z,1.08
2023-02-17T11:41:08.454Z,0.47
2023-02-17T11:43:35.767Z,1.90
2023-02-17T11:46:08.590Z,0.63
2023-02-17T11:48:41.179Z,0.75
2023-02-17T11:51:26.511Z,3.60
2023-02-17T11:54:08.100Z,1.52
2023-02-17T11:56:36.806Z,0.40
2023-02-17T11:59:03.155Z,1.35
2023-02-17T12:01:32.351Z,0.85
2023-02-17T12:03:58.801Z,0.55
2023-02-17T12:06:43.469Z,0.38
2023-02-17T12:09:36.132Z,0.47
2023-02-17T12:12:14.441Z,0.22
2023-02-17T12:15:10.236Z,0.30
2023-02-17T12:17:39.626Z,0.20
2023-02-17T12:20:07.167Z,0.20
2023-02-17T12:22:41.626Z,0.90
2023-02-17T12:25:28.948Z,0.20
2023-02-17T12:28:20.243Z,0.20
2023-02-17T12:31:15.767Z,2.03
2023-02-17T12:33:58.258Z,0.30
2023-02-17T12:36:27.776Z,0.20
2023-02-17T12:38:55.157Z,1.50
2023-02-17T12:41:27.427Z,0.32
2023-02-17T12:43:58.205Z,3.40
2023-02-17T12:46:32.220Z,1.35
2023-02-17T12:49:06.553Z,0.55
2023-02-17T12:51:35.288Z,2.22
2023-02-17T12:54:15.844Z,0.63
2023-02-17T12:56:42.200Z,0.55
2023-02-17T12:59:16.931Z,0.60
2023-02-17T13:01:52.724Z,0.88
2023-02-17T13:04:19.803Z,0.60
2023-02-17T13:06:52.668Z,2.83
2023-02-17T13:09:29.578Z,2.92
2023-02-17T13:12:07.232Z,1.95
2023-02-17T13:14:41.262Z,5.03
2023-02-17T13:17:21.535Z,6.38
2023-02-17T13:19:48.050Z,0.95
2023-02-17T13:22:22.332Z,1.60
2023-02-17T13:24:54.143Z,5.38
2023-02-17T13:27:21.748Z,7.28
2023-02-17T13:30:11.207Z,13.02
2023-02-17T13:32:38.408Z,21.77
2023-02-17T13:35:18.215Z,8.02
2023-02-17T13:37:47.514Z,11.63
2023-02-17T13:40:17.821Z,14.85
2023-02-17T13:42:48.259Z,19.95
2023-02-17T13:45:24.308Z,23.80
2023-02-17T13:47:51.698Z,29.02
2023-02-17T13:50:47.521Z,31.23
2023-02-17T13:53:22.396Z,31.30
2023-02-17T13:55:48.844Z,34.75
2023-02-17T13:58:21.101Z,35.40
2023-02-17T14:00:48.459Z,21.17
2023-02-17T14:03:17.607Z,35.47
2023-02-17T14:05:45.064Z,23.98
2023-02-17T14:08:20.485Z,31.25
2023-02-17T14:10:47.050Z,25.98
2023-02-17T14:13:13.910Z,32.78
2023-02-17T14:16:12.887Z,24.85
2023-02-17T14:18:42.070Z,42.38
2023-02-17T14:21:23.161Z,26.33
2023-02-17T14:23:52.261Z,26.33
2023-02-17T14:26:37.006Z,27.92
2023-02-17T14:29:05.671Z,26.05
2023-02-17T14:31:43.212Z,29.92
2023-02-17T14:34:13.873Z,28.25
2023-02-17T14:36:40.623Z,25.80
2023-02-17T14:39:08.228Z,26.33
2023-02-17T14:41:34.836Z,25.00
2023-02-17T14:44:01.290Z,23.73
2023-02-17T14:46:28.101Z,26.13
2023-02-17T14:48:54.681Z,28.73
2023-02-17T14:51:22.228Z,33.70
2023-02-17T14:53:49.622Z,46.15
2023-02-17T14:56:19.823Z,38.58
2023-02-17T14:58:46.530Z,28.00
2023-02-17T15:01:13.671Z,33.55
2023-02-17T15:03:40.170Z,29.05
2023-02-17T15:06:17.147Z,25.75
2023-02-17T15:08:45.279Z,41.10
2023-02-17T15:11:30.508Z,31.02
2023-02-17T15:13:56.964Z,36.25
2023-02-17T15:16:23.467Z,41.63
2023-02-17T15:18:50.952Z,37.67
2023-02-17T15:21:28.124Z,25.88
2023-02-17T15:23:57.614Z,17.38
2023-02-17T15:26:24.409Z,22.98
2023-02-17T15:28:51.138Z,25.75
2023-02-17T15:31:20.830Z,29.75
2023-02-17T15:33:52.500Z,24.05
2023-02-17T15:36:18.928Z,33.55
2023-02-17T15:38:45.428Z,27.77
2023-02-17T15:41:17.486Z,26.95
2023-02-17T15:43:45.467Z,27.95
2023-02-17T15:46:15.407Z,19.30
2023-02-17T15:48:42.688Z,22.07
2023-02-17T15:51:13.488Z,21.10
2023-02-17T15:53:39.915Z,15.98
2023-02-17T15:56:26.863Z,18.30
2023-02-17T15:58:53.666Z,19.98
2023-02-17T16:01:30.965Z,17.02
2023-02-17T16:03:58.040Z,16.33
2023-02-17T16:06:24.973Z,18.15
2023-02-17T16:08:51.402Z,13.75
2023-02-17T16:11:19.308Z,17.00
2023-02-17T16:13:46.216Z,10.80
2023-02-17T16:16:17.722Z,8.82
2023-02-17T16:18:44.832Z,8.40
2023-02-17T16:21:12.617Z,3.75
2023-02-17T16:23:39.121Z,7.93
2023-02-17T16:26:06.764Z,7.20
2023-02-17T16:28:33.687Z,5.18
2023-02-17T16:31:00.105Z,11.30
2023-02-17T16:33:26.607Z,6.28
2023-02-17T16:35:53.261Z,6.20
2023-02-17T16:38:25.907Z,3.70
2023-02-17T16:40:53.139Z,3.65
2023-02-17T16:43:20.835Z,8.93
2023-02-17T16:45:52.316Z,4.15
2023-02-17T16:48:20.720Z,4.70
2023-02-17T16:50:47.105Z,6.25
2023-02-17T16:53:14.062Z,6.95
2023-02-17T16:55:40.994Z,5.55
2023-02-17T16:58:15.352Z,2.33
2023-02-17T17:00:42.149Z,5.75
2023-02-17T17:03:08.628Z,11.52
2023-02-17T17:05:35.715Z,8.70
2023-02-17T17:08:02.097Z,4.47
2023-02-17T17:10:29.990Z,5.75
2023-02-17T17:12:56.546Z,8.20
2023-02-17T17:15:22.966Z,12.95
2023-02-17T17:17:55.817Z,17.83
2023-02-17T17:20:24.099Z,17.48
2023-02-17T17:22:51.471Z,22.52
2023-02-17T17:25:17.960Z,20.73
2023-02-17T17:27:45.941Z,19.10
2023-02-17T17:30:16.351Z,28.33
2023-02-17T17:32:44.453Z,33.83
2023-02-17T17:35:11.045Z,27.63
2023-02-17T17:37:39.430Z,21.98
2023-02-17T17:40:06.350Z,16.85
2023-02-17T17:42:32.958Z,33.47
2023-02-17T17:44:59.334Z,27.65
2023-02-17T17:47:30.129Z,26.15
2023-02-17T17:49:59.763Z,31.60
2023-02-17T17:52:26.310Z,32.90
2023-02-17T17:54:52.702Z,33.33
2023-02-17T17:57:19.058Z,33.83
2023-02-17T17:59:45.581Z,37.85
2023-02-17T18:02:12.004Z,29.40
2023-02-17T18:04:38.417Z,24.02
2023-02-17T18:07:05.045Z,38.15
2023-02-17T18:09:32.794Z,33.38
2023-02-17T18:12:01.220Z,33.97
2023-02-17T18:14:27.708Z,33.03
2023-02-17T18:16:54.107Z,22.90
2023-02-17T18:19:20.670Z,32.75
2023-02-17T18:21:47.741Z,29.88
2023-02-17T18:24:14.316Z,40.33
2023-02-17T18:26:40.867Z,33.90
2023-02-17T18:29:07.422Z,25.67
2023-02-17T18:31:33.949Z,27.15
2023-02-17T18:34:00.399Z,24.40
2023-02-17T18:36:27.008Z,25.55
2023-02-17T18:38:53.677Z,31.23
2023-02-17T18:41:20.990Z,15.23
2023-02-17T18:43:47.579Z,19.13
2023-02-17T18:46:14.744Z,20.33
2023-02-17T18:48:44.353Z,22.27
2023-02-17T18:51:11.979Z,20.60
2023-02-17T18:53:38.724Z,23.08
2023-02-17T18:56:10.059Z,17.15
2023-02-17T18:58:36.440Z,15.50
2023-02-17T19:01:02.861Z,32.45
2023-02-17T19:03:29.575Z,11.45
2023-02-17T19:05:56.041Z,13.82
2023-02-17T19:08:22.549Z,8.90
2023-02-17T19:10:50.426Z,12.95
2023-02-17T19:13:16.843Z,12.05
2023-02-17T19:15:43.242Z,18.88
2023-02-17T19:18:09.754Z,11.95
2023-02-17T19:20:36.128Z,6.25
2023-02-17T19:23:04.931Z,12.98
2023-02-17T19:25:31.382Z,8.55
2023-02-17T19:27:57.820Z,9.57
2023-02-17T19:30:24.407Z,6.47
2023-02-17T19:32:50.855Z,7.25
2023-02-17T19:35:17.380Z,6.03
2023-02-17T19:37:43.798Z,7.65
2023-02-17T19:40:10.369Z,6.97
2023-02-17T19:42:36.926Z,9.40
2023-02-17T19:45:03.385Z,5.43
2023-02-17T19:47:30.888Z,5.18
2023-02-17T19:49:57.363Z,6.40
2023-02-17T19:52:23.745Z,13.23
2023-02-17T19:54:50.541Z,5.13
2023-02-17T19:57:18.317Z,3.83
2023-02-17T19:59:44.860Z,5.38
2023-02-17T20:02:14.983Z,2.60
2023-02-17T20:04:41.661Z,2.30
2023-02-17T20:07:08.230Z,2.13
2023-02-17T20:09:34.945Z,5.38
2023-02-17T20:12:01.324Z,3.90
2023-02-17T20:14:27.803Z,3.30
2023-02-17T20:16:55.625Z,6.43
2023-02-17T20:19:22.222Z,2.38
2023-02-17T20:21:50.761Z,4.82
2023-02-17T20:24:17.186Z,1.92
2023-02-17T20:26:45.095Z,2.65
2023-02-17T20:29:12.135Z,6.22
2023-02-17T20:31:39.736Z,1.33
2023-02-17T20:34:07.541Z,2.05
2023-02-17T20:36:34.213Z,1.05
2023-02-17T20:39:02.831Z,3.22
2023-02-17T20:41:29.637Z,1.52
2023-02-17T20:43:56.179Z,2.10
2023-02-17T20:46:24.331Z,1.70
2023-02-17T20:48:51.389Z,3.40
2023-02-17T20:51:18.038Z,2.63
2023-02-17T20:53:44.444Z,4.00
2023-02-17T20:56:14.271Z,2.03
2023-02-17T20:58:40.740Z,1.77
2023-02-17T21:01:07.257Z,3.72
2023-02-17T21:03:33.792Z,2.15
2023-02-17T21:06:01.926Z,2.05
2023-02-17T21:08:28.358Z,1.15
2023-02-17T21:10:54.732Z,1.95
2023-02-17T21:13:24.736Z,2.92
2023-02-17T21:15:51.278Z,5.83
2023-02-17T21:18:17.762Z,3.05
2023-02-17T21:20:44.233Z,5.47
2023-02-17T21:23:11.761Z,4.78
2023-02-17T21:25:38.164Z,2.75
2023-02-17T21:28:04.594Z,5.28
2023-02-17T21:30:31.041Z,2.53
2023-02-17T21:32:57.551Z,6.88
2023-02-17T21:35:23.973Z,8.60
2023-02-17T21:37:50.386Z,7.15
2023-02-17T21:40:16.785Z,6.10
2023-02-17T21:43:01.924Z,7.50
2023-02-17T21:45:28.357Z,3.38
2023-02-17T21:47:54.780Z,1.98
2023-02-17T21:50:21.973Z,4.65
2023-02-17T21:52:48.427Z,5.38
2023-02-17T21:55:14.815Z,1.55
2023-02-17T21:57:41.209Z,1.90
2023-02-17T22:00:08.850Z,4.65
2023-02-17T22:02:36.103Z,1.27
2023-02-17T22:05:02.527Z,3.53
2023-02-17T22:07:28.972Z,2.38
2023-02-17T22:09:55.366Z,3.95
2023-02-17T22:12:21.755Z,2.95
2023-02-17T22:14:48.169Z,1.67
2023-02-17T22:17:14.639Z,4.78
2023-02-17T22:19:41.026Z,4.50
2023-02-17T22:22:07.518Z,4.07
2023-02-17T22:24:33.960Z,2.72
2023-02-17T22:27:00.478Z,1.25
2023-02-17T22:29:26.871Z,2.25
2023-02-17T22:31:55.937Z,1.58
2023-02-17T22:34:23.164Z,3.03
2023-02-17T22:36:49.761Z,0.88
2023-02-17T22:39:16.290Z,4.90
2023-02-17T22:41:42.701Z,1.63
2023-02-17T22:44:09.212Z,4.93
2023-02-17T22:46:35.622Z,3.55
2023-02-17T22:49:02.238Z,4.72
2023-02-17T22:51:30.233Z,4.43
2023-02-17T22:53:56.849Z,3.90
2023-02-17T22:56:23.320Z,2.00
2023-02-17T22:58:55.715Z,3.92
2023-02-17T23:01:22.312Z,3.90
2023-02-17T23:03:53.926Z,4.13
2023-02-17T23:06:22.649Z,5.05
2023-02-17T23:08:49.320Z,3.55
2023-02-17T23:11:17.427Z,8.00
2023-02-17T23:13:44.239Z,5.65
2023-02-17T23:16:11.522Z,4.53
2023-02-17T23:18:38.038Z,7.03
2023-02-17T23:21:08.541Z,5.75
2023-02-17T23:23:35.013Z,7.68
2023-02-17T23:26:01.403Z,3.30
2023-02-17T23:28:27.817Z,6.70
2023-02-17T23:30:54.477Z,3.78
2023-02-17T23:33:22.517Z,5.18
2023-02-17T23:35:48.964Z,6.10
2023-02-17T23:38:16.485Z,6.72
2023-02-17T23:40:42.993Z,4.40
2023-02-17T23:43:09.429Z,4.03
2023-02-17T23:45:37.884Z,6.70
2023-02-17T23:48:04.619Z,4.60
2023-02-17T23:50:31.013Z,11.43
2023-02-17T23:52:57.504Z,7.90
2023-02-17T23:55:23.994Z,5.50
2023-02-17T23:57:50.363Z,8.23
